Rafha, Saudi Arabia
Current Conditions -  °F | °C
As of 3:00 AM on Tuesday 27 Jan 2015 (Local Time) from OERF Reporting Station
Clear Clear  
Wind Chill: 57°   Ceiling: Unl
Heat Index: 57°   Visibility: 6mi
Dew Point: 28°   Wind: 3mph
Humidity: 33%   Direction: 300°WNW
Pressure: 30"   Gusts: NA
Location:  29.63°N, 43.51°E
Report Text: OERF 270000Z 30003KT CAVOK 14/M02 Q1016
Loading
Personal Weather Stations






























Interactive Weather Map New forecast layout! Learn more

10-Day Weather Forecast

Advertisements
Track Severe Weather on mobile